sensor_id;sensor_type;location;lat;lon;timestamp;temperature;humidity
19483;DHT22;9882;51.166;6.992;2024-02-21T00:01:29;9.10;99.90
19483;DHT22;9882;51.166;6.992;2024-02-21T00:03:58;9.10;99.90
19483;DHT22;9882;51.166;6.992;2024-02-21T00:06:27;9.00;99.90
19483;DHT22;9882;51.166;6.992;2024-02-21T00:08:56;9.00;99.90
19483;DHT22;9882;51.166;6.992;2024-02-21T00:11:25;9.10;99.90
19483;DHT22;9882;51.166;6.992;2024-02-21T00:13:56;9.00;99.90
19483;DHT22;9882;51.166;6.992;2024-02-21T00:16:26;9.10;99.90
19483;DHT22;9882;51.166;6.992;2024-02-21T00:18:55;9.10;99.90
19483;DHT22;9882;51.166;6.992;2024-02-21T00:21:25;9.00;99.90
19483;DHT22;9882;51.166;6.992;2024-02-21T00:23:54;9.00;99.90
19483;DHT22;9882;51.166;6.992;2024-02-21T00:26:23;9.00;99.90
19483;DHT22;9882;51.166;6.992;2024-02-21T00:28:53;9.00;99.90
19483;DHT22;9882;51.166;6.992;2024-02-21T00:31:24;9.10;99.90
19483;DHT22;9882;51.166;6.992;2024-02-21T00:33:53;9.10;99.90
19483;DHT22;9882;51.166;6.992;2024-02-21T00:36:22;9.00;99.90
19483;DHT22;9882;51.166;6.992;2024-02-21T00:38:51;9.10;99.90
19483;DHT22;9882;51.166;6.992;2024-02-21T00:41:21;9.00;99.90
19483;DHT22;9882;51.166;6.992;2024-02-21T00:43:50;9.00;99.90
19483;DHT22;9882;51.166;6.992;2024-02-21T00:46:19;9.10;99.90
19483;DHT22;9882;51.166;6.992;2024-02-21T00:48:49;9.00;99.90
19483;DHT22;9882;51.166;6.992;2024-02-21T00:51:18;9.00;99.90
19483;DHT22;9882;51.166;6.992;2024-02-21T00:53:47;9.00;99.90
19483;DHT22;9882;51.166;6.992;2024-02-21T00:56:17;9.00;99.90
19483;DHT22;9882;51.166;6.992;2024-02-21T00:58:46;9.00;99.90
19483;DHT22;9882;51.166;6.992;2024-02-21T01:01:21;9.00;99.90
19483;DHT22;9882;51.166;6.992;2024-02-21T01:03:52;9.00;99.90
19483;DHT22;9882;51.166;6.992;2024-02-21T01:06:22;9.10;99.90
19483;DHT22;9882;51.166;6.992;2024-02-21T01:08:50;9.10;99.90
19483;DHT22;9882;51.166;6.992;2024-02-21T01:11:19;9.10;99.90
19483;DHT22;9882;51.166;6.992;2024-02-21T01:13:48;9.00;99.90
19483;DHT22;9882;51.166;6.992;2024-02-21T01:16:18;9.10;99.90
19483;DHT22;9882;51.166;6.992;2024-02-21T01:18:46;9.10;99.90
19483;DHT22;9882;51.166;6.992;2024-02-21T01:21:17;9.00;99.90
19483;DHT22;9882;51.166;6.992;2024-02-21T01:23:46;9.10;99.90
19483;DHT22;9882;51.166;6.992;2024-02-21T01:26:15;9.10;99.90
19483;DHT22;9882;51.166;6.992;2024-02-21T01:28:43;9.00;99.90
19483;DHT22;9882;51.166;6.992;2024-02-21T01:31:12;9.00;99.90
19483;DHT22;9882;51.166;6.992;2024-02-21T01:33:42;9.10;99.90
19483;DHT22;9882;51.166;6.992;2024-02-21T01:36:11;9.10;99.90
19483;DHT22;9882;51.166;6.992;2024-02-21T01:38:41;9.00;99.90
19483;DHT22;9882;51.166;6.992;2024-02-21T01:41:10;9.00;99.90
19483;DHT22;9882;51.166;6.992;2024-02-21T01:43:39;9.10;99.90
19483;DHT22;9882;51.166;6.992;2024-02-21T01:46:08;9.10;99.90
19483;DHT22;9882;51.166;6.992;2024-02-21T01:48:37;9.10;99.90
19483;DHT22;9882;51.166;6.992;2024-02-21T01:51:06;9.00;99.90
19483;DHT22;9882;51.166;6.992;2024-02-21T01:53:37;9.10;99.90
19483;DHT22;9882;51.166;6.992;2024-02-21T01:56:10;9.00;99.90
19483;DHT22;9882;51.166;6.992;2024-02-21T01:58:42;9.00;99.90
19483;DHT22;9882;51.166;6.992;2024-02-21T02:01:11;9.10;99.90
19483;DHT22;9882;51.166;6.992;2024-02-21T02:03:42;9.00;99.90
19483;DHT22;9882;51.166;6.992;2024-02-21T02:06:11;9.10;99.90
19483;DHT22;9882;51.166;6.992;2024-02-21T02:08:39;9.00;99.90
19483;DHT22;9882;51.166;6.992;2024-02-21T02:11:10;9.00;99.90
19483;DHT22;9882;51.166;6.992;2024-02-21T02:13:39;9.00;99.90
19483;DHT22;9882;51.166;6.992;2024-02-21T02:16:08;9.00;99.90
19483;DHT22;9882;51.166;6.992;2024-02-21T02:18:37;9.00;99.90
19483;DHT22;9882;51.166;6.992;2024-02-21T02:21:10;9.10;99.90
19483;DHT22;9882;51.166;6.992;2024-02-21T02:23:41;9.10;99.90
19483;DHT22;9882;51.166;6.992;2024-02-21T02:26:11;9.00;99.90
19483;DHT22;9882;51.166;6.992;2024-02-21T02:28:40;9.00;99.90
19483;DHT22;9882;51.166;6.992;2024-02-21T02:31:08;9.10;99.90
19483;DHT22;9882;51.166;6.992;2024-02-21T02:33:37;9.10;99.90
19483;DHT22;9882;51.166;6.992;2024-02-21T02:36:07;8.90;99.90
19483;DHT22;9882;51.166;6.992;2024-02-21T02:38:35;9.00;99.90
19483;DHT22;9882;51.166;6.992;2024-02-21T02:41:06;9.00;99.90
19483;DHT22;9882;51.166;6.992;2024-02-21T02:43:35;9.00;99.90
19483;DHT22;9882;51.166;6.992;2024-02-21T02:46:04;9.00;99.90
19483;DHT22;9882;51.166;6.992;2024-02-21T02:48:38;9.00;99.90
19483;DHT22;9882;51.166;6.992;2024-02-21T02:51:07;9.00;99.90
19483;DHT22;9882;51.166;6.992;2024-02-21T02:53:36;9.00;99.90
19483;DHT22;9882;51.166;6.992;2024-02-21T02:56:07;9.00;99.90
19483;DHT22;9882;51.166;6.992;2024-02-21T02:58:36;9.00;99.90
19483;DHT22;9882;51.166;6.992;2024-02-21T03:01:07;9.00;99.90
19483;DHT22;9882;51.166;6.992;2024-02-21T03:03:36;8.90;99.90
19483;DHT22;9882;51.166;6.992;2024-02-21T03:06:05;8.90;99.90
19483;DHT22;9882;51.166;6.992;2024-02-21T03:08:35;8.90;99.90
19483;DHT22;9882;51.166;6.992;2024-02-21T03:11:05;8.90;99.90
19483;DHT22;9882;51.166;6.992;2024-02-21T03:13:36;9.00;99.90
19483;DHT22;9882;51.166;6.992;2024-02-21T03:16:06;8.90;99.90
19483;DHT22;9882;51.166;6.992;2024-02-21T03:18:35;8.90;99.90
19483;DHT22;9882;51.166;6.992;2024-02-21T03:21:05;8.90;99.90
19483;DHT22;9882;51.166;6.992;2024-02-21T03:23:34;8.90;99.90
19483;DHT22;9882;51.166;6.992;2024-02-21T03:26:04;8.90;99.90
19483;DHT22;9882;51.166;6.992;2024-02-21T03:28:33;8.90;99.90
19483;DHT22;9882;51.166;6.992;2024-02-21T03:31:03;8.90;99.90
19483;DHT22;9882;51.166;6.992;2024-02-21T03:33:33;8.90;99.90
19483;DHT22;9882;51.166;6.992;2024-02-21T03:36:02;8.80;99.90
19483;DHT22;9882;51.166;6.992;2024-02-21T03:38:33;8.90;99.90
19483;DHT22;9882;51.166;6.992;2024-02-21T03:41:05;8.80;99.90
19483;DHT22;9882;51.166;6.992;2024-02-21T03:43:38;8.80;99.90
19483;DHT22;9882;51.166;6.992;2024-02-21T03:46:12;9.00;99.90
19483;DHT22;9882;51.166;6.992;2024-02-21T03:48:43;8.90;99.90
19483;DHT22;9882;51.166;6.992;2024-02-21T03:51:14;9.00;99.90
19483;DHT22;9882;51.166;6.992;2024-02-21T03:54:00;8.90;99.90
19483;DHT22;9882;51.166;6.992;2024-02-21T03:56:32;9.00;99.90
19483;DHT22;9882;51.166;6.992;2024-02-21T03:59:01;8.90;99.90
19483;DHT22;9882;51.166;6.992;2024-02-21T04:01:32;9.00;99.90
19483;DHT22;9882;51.166;6.992;2024-02-21T04:04:02;8.90;99.90
19483;DHT22;9882;51.166;6.992;2024-02-21T04:06:31;8.90;99.90
19483;DHT22;9882;51.166;6.992;2024-02-21T04:09:00;8.90;99.90
19483;DHT22;9882;51.166;6.992;2024-02-21T04:11:29;9.00;99.90
19483;DHT22;9882;51.166;6.992;2024-02-21T04:13:59;8.90;99.90
19483;DHT22;9882;51.166;6.992;2024-02-21T04:16:28;8.90;99.90
19483;DHT22;9882;51.166;6.992;2024-02-21T04:18:58;8.80;99.90
19483;DHT22;9882;51.166;6.992;2024-02-21T04:21:27;8.80;99.90
19483;DHT22;9882;51.166;6.992;2024-02-21T04:23:56;8.90;99.90
19483;DHT22;9882;51.166;6.992;2024-02-21T04:26:26;9.00;99.90
19483;DHT22;9882;51.166;6.992;2024-02-21T04:28:55;8.90;99.90
19483;DHT22;9882;51.166;6.992;2024-02-21T04:31:24;8.90;99.90
19483;DHT22;9882;51.166;6.992;2024-02-21T04:33:53;8.90;99.90
19483;DHT22;9882;51.166;6.992;2024-02-21T04:36:25;8.90;99.90
19483;DHT22;9882;51.166;6.992;2024-02-21T04:38:56;8.90;99.90
19483;DHT22;9882;51.166;6.992;2024-02-21T04:41:25;8.90;99.90
19483;DHT22;9882;51.166;6.992;2024-02-21T04:43:54;8.90;99.90
19483;DHT22;9882;51.166;6.992;2024-02-21T04:46:23;8.90;99.90
19483;DHT22;9882;51.166;6.992;2024-02-21T04:48:52;8.80;99.90
19483;DHT22;9882;51.166;6.992;2024-02-21T04:51:26;8.90;99.90
19483;DHT22;9882;51.166;6.992;2024-02-21T04:53:55;8.90;99.90
19483;DHT22;9882;51.166;6.992;2024-02-21T04:56:26;9.00;99.90
19483;DHT22;9882;51.166;6.992;2024-02-21T04:58:56;8.80;99.90
19483;DHT22;9882;51.166;6.992;2024-02-21T05:01:25;8.80;99.90
19483;DHT22;9882;51.166;6.992;2024-02-21T05:03:54;8.90;99.90
19483;DHT22;9882;51.166;6.992;2024-02-21T05:06:24;8.90;99.90
19483;DHT22;9882;51.166;6.992;2024-02-21T05:08:53;9.00;99.90
19483;DHT22;9882;51.166;6.992;2024-02-21T05:11:22;8.80;99.90
19483;DHT22;9882;51.166;6.992;2024-02-21T05:13:51;8.80;99.90
19483;DHT22;9882;51.166;6.992;2024-02-21T05:16:20;8.80;99.90
19483;DHT22;9882;51.166;6.992;2024-02-21T05:18:49;8.80;99.90
19483;DHT22;9882;51.166;6.992;2024-02-21T05:21:18;8.80;99.90
19483;DHT22;9882;51.166;6.992;2024-02-21T05:23:49;8.80;99.90
19483;DHT22;9882;51.166;6.992;2024-02-21T05:26:21;8.80;99.90
19483;DHT22;9882;51.166;6.992;2024-02-21T05:28:50;8.80;99.90
19483;DHT22;9882;51.166;6.992;2024-02-21T05:31:19;8.90;99.90
19483;DHT22;9882;51.166;6.992;2024-02-21T05:33:48;8.80;99.90
19483;DHT22;9882;51.166;6.992;2024-02-21T05:36:18;8.80;99.90
19483;DHT22;9882;51.166;6.992;2024-02-21T05:38:50;8.80;99.90
19483;DHT22;9882;51.166;6.992;2024-02-21T05:41:19;8.80;99.90
19483;DHT22;9882;51.166;6.992;2024-02-21T05:43:50;8.90;99.90
19483;DHT22;9882;51.166;6.992;2024-02-21T05:46:20;8.80;99.90
19483;DHT22;9882;51.166;6.992;2024-02-21T05:48:49;8.90;99.90
19483;DHT22;9882;51.166;6.992;2024-02-21T05:51:19;8.80;99.90
19483;DHT22;9882;51.166;6.992;2024-02-21T05:53:53;8.90;99.90
19483;DHT22;9882;51.166;6.992;2024-02-21T05:56:22;8.80;99.90
19483;DHT22;9882;51.166;6.992;2024-02-21T05:58:50;8.80;99.90
19483;DHT22;9882;51.166;6.992;2024-02-21T06:01:19;8.90;99.90
19483;DHT22;9882;51.166;6.992;2024-02-21T06:03:49;8.80;99.90
19483;DHT22;9882;51.166;6.992;2024-02-21T06:06:18;8.90;99.90
19483;DHT22;9882;51.166;6.992;2024-02-21T06:08:49;8.90;99.90
19483;DHT22;9882;51.166;6.992;2024-02-21T06:11:20;8.90;99.90
19483;DHT22;9882;51.166;6.992;2024-02-21T06:13:49;9.00;99.90
19483;DHT22;9882;51.166;6.992;2024-02-21T06:16:18;8.90;99.90
19483;DHT22;9882;51.166;6.992;2024-02-21T06:18:47;9.00;99.90
19483;DHT22;9882;51.166;6.992;2024-02-21T06:21:16;9.00;99.90
19483;DHT22;9882;51.166;6.992;2024-02-21T06:23:45;8.90;99.90
19483;DHT22;9882;51.166;6.992;2024-02-21T06:26:16;8.90;99.90
19483;DHT22;9882;51.166;6.992;2024-02-21T06:28:47;8.90;99.90
19483;DHT22;9882;51.166;6.992;2024-02-21T06:31:39;8.80;99.90
19483;DHT22;9882;51.166;6.992;2024-02-21T06:37:19;8.90;99.90
19483;DHT22;9882;51.166;6.992;2024-02-21T06:40:31;9.00;99.90
19483;DHT22;9882;51.166;6.992;2024-02-21T06:43:57;8.80;99.90
19483;DHT22;9882;51.166;6.992;2024-02-21T06:46:29;8.90;99.90
19483;DHT22;9882;51.166;6.992;2024-02-21T06:50:05;8.90;99.90
19483;DHT22;9882;51.166;6.992;2024-02-21T06:52:42;8.80;99.90
19483;DHT22;9882;51.166;6.992;2024-02-21T06:55:14;8.80;99.90
19483;DHT22;9882;51.166;6.992;2024-02-21T06:57:45;8.80;99.90
19483;DHT22;9882;51.166;6.992;2024-02-21T07:00:22;8.80;99.90
19483;DHT22;9882;51.166;6.992;2024-02-21T07:02:52;8.70;99.90
19483;DHT22;9882;51.166;6.992;2024-02-21T08:34:22;8.80;99.90
19483;DHT22;9882;51.166;6.992;2024-02-21T10:17:17;9.30;99.90
19483;DHT22;9882;51.166;6.992;2024-02-21T10:55:46;9.70;99.90
19483;DHT22;9882;51.166;6.992;2024-02-21T11:01:47;9.80;99.90
19483;DHT22;9882;51.166;6.992;2024-02-21T12:01:24;10.20;99.90
19483;DHT22;9882;51.166;6.992;2024-02-21T12:07:30;10.30;99.90
19483;DHT22;9882;51.166;6.992;2024-02-21T12:22:17;10.40;99.90
19483;DHT22;9882;51.166;6.992;2024-02-21T13:36:09;11.30;99.90
19483;DHT22;9882;51.166;6.992;2024-02-21T13:39:02;11.40;99.90
19483;DHT22;9882;51.166;6.992;2024-02-21T13:42:02;11.40;99.90
19483;DHT22;9882;51.166;6.992;2024-02-21T13:44:35;11.30;99.90
19483;DHT22;9882;51.166;6.992;2024-02-21T13:47:05;11.20;99.90
19483;DHT22;9882;51.166;6.992;2024-02-21T13:49:36;11.20;99.90
19483;DHT22;9882;51.166;6.992;2024-02-21T13:52:06;11.10;99.90
19483;DHT22;9882;51.166;6.992;2024-02-21T13:54:39;11.20;99.90
19483;DHT22;9882;51.166;6.992;2024-02-21T13:57:09;11.20;99.90
19483;DHT22;9882;51.166;6.992;2024-02-21T13:59:41;11.20;99.90
19483;DHT22;9882;51.166;6.992;2024-02-21T14:02:26;11.20;99.90
19483;DHT22;9882;51.166;6.992;2024-02-21T14:04:56;11.20;99.90
19483;DHT22;9882;51.166;6.992;2024-02-21T14:07:25;11.20;99.90
19483;DHT22;9882;51.166;6.992;2024-02-21T14:09:54;11.30;99.90
19483;DHT22;9882;51.166;6.992;2024-02-21T14:12:23;11.30;99.90
19483;DHT22;9882;51.166;6.992;2024-02-21T14:14:52;11.30;99.90
19483;DHT22;9882;51.166;6.992;2024-02-21T14:17:22;11.30;99.90
19483;DHT22;9882;51.166;6.992;2024-02-21T14:19:52;11.30;99.90
19483;DHT22;9882;51.166;6.992;2024-02-21T14:22:20;11.30;99.90
19483;DHT22;9882;51.166;6.992;2024-02-21T14:24:52;11.50;99.90
19483;DHT22;9882;51.166;6.992;2024-02-21T14:27:20;11.50;99.90
19483;DHT22;9882;51.166;6.992;2024-02-21T14:29:49;11.30;99.90
19483;DHT22;9882;51.166;6.992;2024-02-21T14:32:19;11.20;99.90
19483;DHT22;9882;51.166;6.992;2024-02-21T14:34:48;11.20;99.90
19483;DHT22;9882;51.166;6.992;2024-02-21T14:37:17;11.30;99.90
19483;DHT22;9882;51.166;6.992;2024-02-21T14:39:45;11.30;99.90
19483;DHT22;9882;51.166;6.992;2024-02-21T14:42:14;11.20;99.90
19483;DHT22;9882;51.166;6.992;2024-02-21T14:44:43;11.10;99.90
19483;DHT22;9882;51.166;6.992;2024-02-21T14:47:11;11.40;99.90
19483;DHT22;9882;51.166;6.992;2024-02-21T14:49:41;11.30;99.90
19483;DHT22;9882;51.166;6.992;2024-02-21T14:52:10;11.30;99.90
19483;DHT22;9882;51.166;6.992;2024-02-21T14:54:39;11.40;99.90
19483;DHT22;9882;51.166;6.992;2024-02-21T14:57:12;11.30;99.90
19483;DHT22;9882;51.166;6.992;2024-02-21T14:59:40;11.40;99.90
19483;DHT22;9882;51.166;6.992;2024-02-21T15:02:09;11.30;99.90
19483;DHT22;9882;51.166;6.992;2024-02-21T15:04:38;11.30;99.90
19483;DHT22;9882;51.166;6.992;2024-02-21T15:07:08;11.40;99.90
19483;DHT22;9882;51.166;6.992;2024-02-21T15:09:36;11.30;99.90
19483;DHT22;9882;51.166;6.992;2024-02-21T15:12:06;11.40;99.90
19483;DHT22;9882;51.166;6.992;2024-02-21T15:14:35;11.30;99.90
19483;DHT22;9882;51.166;6.992;2024-02-21T15:17:04;11.20;99.90
19483;DHT22;9882;51.166;6.992;2024-02-21T15:19:32;11.30;99.90
19483;DHT22;9882;51.166;6.992;2024-02-21T15:22:03;11.30;99.90
19483;DHT22;9882;51.166;6.992;2024-02-21T15:24:33;11.20;99.90
19483;DHT22;9882;51.166;6.992;2024-02-21T15:27:01;11.30;99.90
19483;DHT22;9882;51.166;6.992;2024-02-21T15:29:30;11.30;99.90
19483;DHT22;9882;51.166;6.992;2024-02-21T15:31:58;11.20;99.90
19483;DHT22;9882;51.166;6.992;2024-02-21T15:34:27;11.20;99.90
19483;DHT22;9882;51.166;6.992;2024-02-21T15:36:56;11.20;99.90
19483;DHT22;9882;51.166;6.992;2024-02-21T15:39:24;11.10;99.90
19483;DHT22;9882;51.166;6.992;2024-02-21T15:41:55;11.00;99.90
19483;DHT22;9882;51.166;6.992;2024-02-21T15:44:24;11.20;99.90
19483;DHT22;9882;51.166;6.992;2024-02-21T15:46:53;11.10;99.90
19483;DHT22;9882;51.166;6.992;2024-02-21T15:49:22;11.10;99.90
19483;DHT22;9882;51.166;6.992;2024-02-21T15:51:50;11.20;99.90
19483;DHT22;9882;51.166;6.992;2024-02-21T15:54:19;11.00;99.90
19483;DHT22;9882;51.166;6.992;2024-02-21T15:56:47;11.00;99.90
19483;DHT22;9882;51.166;6.992;2024-02-21T15:59:17;11.10;99.90
19483;DHT22;9882;51.166;6.992;2024-02-21T16:01:46;11.10;99.90
19483;DHT22;9882;51.166;6.992;2024-02-21T16:04:15;11.00;99.90
19483;DHT22;9882;51.166;6.992;2024-02-21T16:06:43;11.00;99.90
19483;DHT22;9882;51.166;6.992;2024-02-21T16:09:18;11.10;99.90
19483;DHT22;9882;51.166;6.992;2024-02-21T16:11:47;11.00;99.90
19483;DHT22;9882;51.166;6.992;2024-02-21T16:14:17;11.00;99.90
19483;DHT22;9882;51.166;6.992;2024-02-21T16:16:45;11.00;99.90
19483;DHT22;9882;51.166;6.992;2024-02-21T16:19:14;11.10;99.90
19483;DHT22;9882;51.166;6.992;2024-02-21T16:21:43;11.00;99.90
19483;DHT22;9882;51.166;6.992;2024-02-21T16:24:13;10.80;99.90
19483;DHT22;9882;51.166;6.992;2024-02-21T16:26:41;10.80;99.90
19483;DHT22;9882;51.166;6.992;2024-02-21T16:29:11;10.80;99.90
19483;DHT22;9882;51.166;6.992;2024-02-21T16:31:42;10.60;99.90
19483;DHT22;9882;51.166;6.992;2024-02-21T16:34:10;10.60;99.90
19483;DHT22;9882;51.166;6.992;2024-02-21T16:36:39;10.60;99.90
19483;DHT22;9882;51.166;6.992;2024-02-21T16:39:08;10.60;99.90
19483;DHT22;9882;51.166;6.992;2024-02-21T16:41:39;10.50;99.90
19483;DHT22;9882;51.166;6.992;2024-02-21T16:44:08;10.60;99.90
19483;DHT22;9882;51.166;6.992;2024-02-21T16:46:36;10.80;99.90
19483;DHT22;9882;51.166;6.992;2024-02-21T16:49:06;10.60;99.90
19483;DHT22;9882;51.166;6.992;2024-02-21T16:51:35;10.60;99.90
19483;DHT22;9882;51.166;6.992;2024-02-21T16:54:04;10.60;99.90
19483;DHT22;9882;51.166;6.992;2024-02-21T16:56:35;10.50;99.90
19483;DHT22;9882;51.166;6.992;2024-02-21T16:59:05;10.60;99.90
19483;DHT22;9882;51.166;6.992;2024-02-21T17:01:35;10.70;99.90
19483;DHT22;9882;51.166;6.992;2024-02-21T17:04:07;10.60;99.90
19483;DHT22;9882;51.166;6.992;2024-02-21T17:06:36;10.60;99.90
19483;DHT22;9882;51.166;6.992;2024-02-21T17:09:05;10.60;99.90
19483;DHT22;9882;51.166;6.992;2024-02-21T17:11:34;10.60;99.90
19483;DHT22;9882;51.166;6.992;2024-02-21T17:14:05;10.50;99.90
19483;DHT22;9882;51.166;6.992;2024-02-21T17:16:34;10.50;99.90
19483;DHT22;9882;51.166;6.992;2024-02-21T17:19:04;10.60;99.90
19483;DHT22;9882;51.166;6.992;2024-02-21T17:21:34;10.70;99.90
19483;DHT22;9882;51.166;6.992;2024-02-21T17:24:03;10.60;99.90
19483;DHT22;9882;51.166;6.992;2024-02-21T17:26:32;10.50;99.90
19483;DHT22;9882;51.166;6.992;2024-02-21T17:29:02;10.50;99.90
19483;DHT22;9882;51.166;6.992;2024-02-21T17:31:30;10.50;99.90
19483;DHT22;9882;51.166;6.992;2024-02-21T17:33:59;10.50;99.90
19483;DHT22;9882;51.166;6.992;2024-02-21T17:36:28;10.40;99.90
19483;DHT22;9882;51.166;6.992;2024-02-21T17:38:58;10.20;99.90
19483;DHT22;9882;51.166;6.992;2024-02-21T17:41:27;10.20;99.90
19483;DHT22;9882;51.166;6.992;2024-02-21T17:43:56;10.20;99.90
19483;DHT22;9882;51.166;6.992;2024-02-21T17:46:24;10.20;99.90
19483;DHT22;9882;51.166;6.992;2024-02-21T17:48:53;10.20;99.90
19483;DHT22;9882;51.166;6.992;2024-02-21T17:51:22;10.20;99.90
19483;DHT22;9882;51.166;6.992;2024-02-21T17:53:51;10.20;99.90
19483;DHT22;9882;51.166;6.992;2024-02-21T17:56:21;10.10;99.90
19483;DHT22;9882;51.166;6.992;2024-02-21T17:58:49;10.00;99.90
19483;DHT22;9882;51.166;6.992;2024-02-21T18:01:18;10.00;99.90
19483;DHT22;9882;51.166;6.992;2024-02-21T18:03:46;9.80;99.90
19483;DHT22;9882;51.166;6.992;2024-02-21T18:06:15;9.60;99.90
19483;DHT22;9882;51.166;6.992;2024-02-21T18:08:46;9.80;99.90
19483;DHT22;9882;51.166;6.992;2024-02-21T18:11:15;10.10;99.90
19483;DHT22;9882;51.166;6.992;2024-02-21T18:13:44;9.90;99.90
19483;DHT22;9882;51.166;6.992;2024-02-21T18:16:13;9.60;99.90
19483;DHT22;9882;51.166;6.992;2024-02-21T18:18:43;9.80;99.90
19483;DHT22;9882;51.166;6.992;2024-02-21T18:21:11;9.80;99.90
19483;DHT22;9882;51.166;6.992;2024-02-21T18:23:40;9.80;99.90
19483;DHT22;9882;51.166;6.992;2024-02-21T18:26:09;9.80;99.90
19483;DHT22;9882;51.166;6.992;2024-02-21T18:28:37;9.60;99.90
19483;DHT22;9882;51.166;6.992;2024-02-21T18:31:07;9.40;99.90
19483;DHT22;9882;51.166;6.992;2024-02-21T18:33:36;9.40;99.90
19483;DHT22;9882;51.166;6.992;2024-02-21T18:36:05;9.70;99.90
19483;DHT22;9882;51.166;6.992;2024-02-21T18:38:34;9.70;99.90
19483;DHT22;9882;51.166;6.992;2024-02-21T18:41:03;10.00;99.90
19483;DHT22;9882;51.166;6.992;2024-02-21T18:43:31;9.50;99.90
19483;DHT22;9882;51.166;6.992;2024-02-21T18:46:00;9.60;99.90
19483;DHT22;9882;51.166;6.992;2024-02-21T18:48:30;9.50;99.90
19483;DHT22;9882;51.166;6.992;2024-02-21T18:50:59;9.40;99.90
19483;DHT22;9882;51.166;6.992;2024-02-21T18:53:27;9.70;99.90
19483;DHT22;9882;51.166;6.992;2024-02-21T18:56:01;9.40;99.90
19483;DHT22;9882;51.166;6.992;2024-02-21T18:58:31;9.50;99.90
19483;DHT22;9882;51.166;6.992;2024-02-21T19:00:59;9.50;99.90
19483;DHT22;9882;51.166;6.992;2024-02-21T19:03:29;9.60;99.90
19483;DHT22;9882;51.166;6.992;2024-02-21T19:05:58;9.70;99.90
19483;DHT22;9882;51.166;6.992;2024-02-21T19:08:26;9.60;99.90
19483;DHT22;9882;51.166;6.992;2024-02-21T19:10:55;9.60;99.90
19483;DHT22;9882;51.166;6.992;2024-02-21T19:13:24;9.70;99.90
19483;DHT22;9882;51.166;6.992;2024-02-21T19:15:53;9.40;99.90
19483;DHT22;9882;51.166;6.992;2024-02-21T19:18:22;9.60;99.90
19483;DHT22;9882;51.166;6.992;2024-02-21T19:20:52;9.60;99.90
19483;DHT22;9882;51.166;6.992;2024-02-21T19:23:21;9.50;99.90
19483;DHT22;9882;51.166;6.992;2024-02-21T19:25:49;9.50;99.90
19483;DHT22;9882;51.166;6.992;2024-02-21T19:28:18;9.50;99.90
19483;DHT22;9882;51.166;6.992;2024-02-21T19:30:48;9.50;99.90
19483;DHT22;9882;51.166;6.992;2024-02-21T19:33:17;9.30;99.90
19483;DHT22;9882;51.166;6.992;2024-02-21T19:35:46;9.30;99.90
19483;DHT22;9882;51.166;6.992;2024-02-21T19:38:16;9.50;99.90
19483;DHT22;9882;51.166;6.992;2024-02-21T19:40:44;9.60;99.90
19483;DHT22;9882;51.166;6.992;2024-02-21T19:43:15;9.50;99.90
19483;DHT22;9882;51.166;6.992;2024-02-21T19:45:45;9.50;99.90
19483;DHT22;9882;51.166;6.992;2024-02-21T19:48:14;9.50;99.90
19483;DHT22;9882;51.166;6.992;2024-02-21T19:50:44;9.50;99.90
19483;DHT22;9882;51.166;6.992;2024-02-21T19:53:16;9.40;99.90
19483;DHT22;9882;51.166;6.992;2024-02-21T19:55:46;9.70;99.90
19483;DHT22;9882;51.166;6.992;2024-02-21T19:58:27;9.60;99.90
19483;DHT22;9882;51.166;6.992;2024-02-21T20:01:05;9.30;99.90
19483;DHT22;9882;51.166;6.992;2024-02-21T20:03:35;9.20;99.90
19483;DHT22;9882;51.166;6.992;2024-02-21T20:06:06;9.30;99.90
19483;DHT22;9882;51.166;6.992;2024-02-21T20:08:36;9.30;99.90
19483;DHT22;9882;51.166;6.992;2024-02-21T20:11:09;9.50;99.90
19483;DHT22;9882;51.166;6.992;2024-02-21T20:13:40;9.30;99.90
19483;DHT22;9882;51.166;6.992;2024-02-21T20:16:11;9.40;99.90
19483;DHT22;9882;51.166;6.992;2024-02-21T20:18:43;9.30;99.90
19483;DHT22;9882;51.166;6.992;2024-02-21T20:21:18;9.30;99.90
19483;DHT22;9882;51.166;6.992;2024-02-21T20:23:54;9.40;99.90
19483;DHT22;9882;51.166;6.992;2024-02-21T20:26:30;9.40;99.90
19483;DHT22;9882;51.166;6.992;2024-02-21T20:29:04;9.40;99.90
19483;DHT22;9882;51.166;6.992;2024-02-21T20:31:36;9.40;99.90
19483;DHT22;9882;51.166;6.992;2024-02-21T20:34:09;9.40;99.90
19483;DHT22;9882;51.166;6.992;2024-02-21T20:36:40;9.20;99.90
19483;DHT22;9882;51.166;6.992;2024-02-21T20:39:13;9.30;99.90
19483;DHT22;9882;51.166;6.992;2024-02-21T20:41:46;9.20;99.90
19483;DHT22;9882;51.166;6.992;2024-02-21T20:44:15;9.00;99.90
19483;DHT22;9882;51.166;6.992;2024-02-21T20:46:47;9.30;99.90
19483;DHT22;9882;51.166;6.992;2024-02-21T20:49:17;9.10;99.90
19483;DHT22;9882;51.166;6.992;2024-02-21T20:51:49;9.20;99.90
19483;DHT22;9882;51.166;6.992;2024-02-21T20:54:20;9.30;99.90
19483;DHT22;9882;51.166;6.992;2024-02-21T20:56:49;9.20;99.90
19483;DHT22;9882;51.166;6.992;2024-02-21T20:59:18;9.30;99.90
19483;DHT22;9882;51.166;6.992;2024-02-21T21:01:48;9.20;99.90
19483;DHT22;9882;51.166;6.992;2024-02-21T21:04:17;9.40;99.90
19483;DHT22;9882;51.166;6.992;2024-02-21T21:06:47;9.10;99.90
19483;DHT22;9882;51.166;6.992;2024-02-21T21:09:16;9.10;99.90
19483;DHT22;9882;51.166;6.992;2024-02-21T21:11:47;9.20;99.90
19483;DHT22;9882;51.166;6.992;2024-02-21T21:14:16;9.20;99.90
19483;DHT22;9882;51.166;6.992;2024-02-21T21:16:46;9.20;99.90
19483;DHT22;9882;51.166;6.992;2024-02-21T21:19:20;9.30;99.90
19483;DHT22;9882;51.166;6.992;2024-02-21T21:21:49;9.30;99.90
19483;DHT22;9882;51.166;6.992;2024-02-21T21:24:19;9.20;99.90
19483;DHT22;9882;51.166;6.992;2024-02-21T21:26:49;9.20;99.90
19483;DHT22;9882;51.166;6.992;2024-02-21T21:29:18;9.30;99.90
19483;DHT22;9882;51.166;6.992;2024-02-21T21:31:48;9.30;99.90
19483;DHT22;9882;51.166;6.992;2024-02-21T21:34:19;9.20;99.90
19483;DHT22;9882;51.166;6.992;2024-02-21T21:36:48;9.30;99.90
19483;DHT22;9882;51.166;6.992;2024-02-21T21:39:17;9.20;99.90
19483;DHT22;9882;51.166;6.992;2024-02-21T21:41:47;9.10;99.90
19483;DHT22;9882;51.166;6.992;2024-02-21T21:44:18;9.00;99.90
19483;DHT22;9882;51.166;6.992;2024-02-21T21:46:47;9.20;99.90
19483;DHT22;9882;51.166;6.992;2024-02-21T21:49:17;9.30;99.90
19483;DHT22;9882;51.166;6.992;2024-02-21T21:51:46;9.10;99.90
19483;DHT22;9882;51.166;6.992;2024-02-21T21:54:15;9.30;99.90
19483;DHT22;9882;51.166;6.992;2024-02-21T21:56:44;9.30;99.90
19483;DHT22;9882;51.166;6.992;2024-02-21T21:59:17;9.20;99.90
19483;DHT22;9882;51.166;6.992;2024-02-21T22:01:46;9.20;99.90
19483;DHT22;9882;51.166;6.992;2024-02-21T22:04:16;9.30;99.90
19483;DHT22;9882;51.166;6.992;2024-02-21T22:06:48;9.30;99.90
19483;DHT22;9882;51.166;6.992;2024-02-21T22:09:18;9.20;99.90
19483;DHT22;9882;51.166;6.992;2024-02-21T22:11:47;9.10;99.90
19483;DHT22;9882;51.166;6.992;2024-02-21T22:14:18;9.10;99.90
19483;DHT22;9882;51.166;6.992;2024-02-21T22:16:47;9.20;99.90
19483;DHT22;9882;51.166;6.992;2024-02-21T22:19:16;9.20;99.90
19483;DHT22;9882;51.166;6.992;2024-02-21T22:21:46;9.10;99.90
19483;DHT22;9882;51.166;6.992;2024-02-21T22:24:15;9.20;99.90
19483;DHT22;9882;51.166;6.992;2024-02-21T22:26:46;9.20;99.90
19483;DHT22;9882;51.166;6.992;2024-02-21T22:29:19;9.30;99.90
19483;DHT22;9882;51.166;6.992;2024-02-21T22:31:48;9.30;99.90
19483;DHT22;9882;51.166;6.992;2024-02-21T22:34:21;9.30;99.90